Strona główna
METAR-TAF:

METAR-TAF

Lotnisko :

Port lotniczy Nội Bài w Hanoi

Hanoi, Wietnam

Szerokość geograficzna: 21-01N, Długość geograficzna: 105-48E, wysokość: 6 m

Aktualna obserwacja pogody

Raport powstał 19 minut temu, godzina 22:00 UTC
Wiatr 3 kt od północno-północny zachód
Temperatura 21°C
Wilgotność 100%
Ciśnienie 1014 hPa
Widzialność: 7000 m
Rozproszone chmury na wysokości 1000 ft
Przerywane chmury na wysokości 1600 ft

METAR: VVNB 182200Z 33003KT 7000 SCT010 BKN016 21/21 Q1014 NOSIG

czas: 05:19 (22:19 UTC)

Prognoza

Raport powstał 5 godziny i 19 minut temu, godzina 17:00 UTC
Prognoza ważna od 18 godzina 18 UTC do 19 godzina 18 UTC
Wiatr 5 kt od północny wschód
Widzialność: 6000 m
Przerywane chmury na wysokości 1500 ft
Przejściowo
od 18 godzina 21 UTC do 19 godzina 01 UTC
Widzialność: 1500 m
Rozproszone chmury na wysokości 500 ft
Przerywane chmury na wysokości 1300 ft
deszcz, zamglenie

TAF: VVNB 181700Z 1818/1918 04005KT 6000 BKN015 TEMPO 1821/1901 1500 RA BR SCT005 BKN013

Obserwacja i prognoza pogody dla ponad 4000 lotnisk (raport METAR i TAF).

Dostępne stacje oznaczono żółtymi i czerwonymi punktami na mapie.

Najedź kursorem aby zobaczyć nazwę stacji.

Kliknij aby zobaczyć obserwacje i prognozy pogody.

Aby zmienić mapę: kliknij na zielony przycisk z czarnym krzyżykiem, aby powiększyć; na zielony przycisk z myślnikiem, aby pomniejszyć; na zielone strzałki, aby przejść do map sąsiednich.


METAR-TAF: